Accueil
METAR-TAF:

METAR-TAF

Aéroports :

Aéroport de Calvi-Sainte-Catherine

Calvi, France

latitude: 42-32N, longitude: 008-48E, altitude: 64 m

Observation

Le bulletin a été fait il y a 42 minutes, à 22:00 UTC
Vent 4 kt de sud
Température 6°C
Humidité 81%
Pression 1020 hPa
Visibilité 10 km ou plus
pas de nuages en-dessous de 1500 mètres et pas de cumulonimbus.

METAR: LFKC 282200Z AUTO 19004KT CAVOK 06/03 Q1020

Heure: 23:42 (22:42 UTC)

Prévision

Le bulletin a été fait il y a 8 heures et 42 minutes, à 14:00 UTC
Prévision valable du 28 à 15 UTC au 29 à 15 UTC
Vent 8 kt de nord/nord-ouest
Visibilité 10 km ou plus
pas de nuages en-dessous de 1500 mètres et pas de cumulonimbus.
Evoluant progressivement
du 28 à 17 UTC au 28 à 19 UTC
Vent 5 kt de sud
Evoluant progressivement
du 29 à 09 UTC au 29 à 10 UTC
Vent 8 kt de nord

TAF: LFKC 281400Z 2815/2915 34008KT CAVOK TX17/2912Z TN05/2905Z BECMG 2817/2819 17005KT BECMG 2909/2910 35008KT

Observations et prévisions météorologiques de plus de 4000 aéroports (messages METAR et TAF).

Les stations disponibles sont représentées par des disques jaunes et rouges sur la carte.

Passer la souris dessus pour voir le nom de la station.

Cliquer dessus pour voir les observations et prévisions météorologiques.

Pour changer de carte: cliquez sur les boutons verts avec une croix noire pour zoomer, sur le bouton vert avec un tiret pour effectuer un zoom arrière, ou sur les flèches vertes pour les cartes adjacentes.


METAR-TAF: